Time;durP1;ratioP1;P1;durP2;ratioP2;P2;SDS_P1;SDS_P2;PMS_P1;PMS_P2;Temp;Humidity;BMP_temperature;BMP_pressure;BME280_temperature;BME280_humidity;BME280_pressure;Samples;Min_cycle;Max_cycle;Signal;HPM_P1;HPM_P2
2022/12/19 00:04:32;;;;;;;3.47;2.50;;;;;;;-1.82;98.48;101103.19;10619484;28;20054;-75
2022/12/19 00:09:34;;;;;;;2.55;1.98;;;;;;;-1.76;98.94;101091.69;10628451;28;20039;-76
2022/12/19 00:14:36;;;;;;;3.42;2.30;;;;;;;-1.69;98.71;101087.22;10642327;27;20558;-75
2022/12/19 00:19:39;;;;;;;2.22;1.90;;;;;;;-1.64;99.29;101079.41;10636929;27;20048;-75
2022/12/19 00:24:41;;;;;;;3.15;2.30;;;;;;;-1.57;99.18;101082.16;10611786;27;20050;-75
2022/12/19 00:29:43;;;;;;;2.10;1.48;;;;;;;-1.50;99.46;101083.06;10594557;28;20046;-76
2022/12/19 00:34:46;;;;;;;3.03;2.08;;;;;;;-1.43;99.81;101078.59;10616475;28;20035;-75
2022/12/19 00:39:48;;;;;;;3.63;1.77;;;;;;;-1.38;99.56;101076.16;10615302;28;20051;-75
2022/12/19 00:44:50;;;;;;;3.30;1.92;;;;;;;-1.32;99.49;101074.56;10603858;28;20056;-76
2022/12/19 00:49:52;;;;;;;3.10;2.00;;;;;;;-1.26;99.67;101071.09;10615526;27;20405;-76
2022/12/19 00:54:56;;;;;;;4.13;1.83;;;;;;;-1.25;100.00;101062.81;10595267;28;20056;-76
2022/12/19 00:59:59;;;;;;;2.08;1.45;;;;;;;-1.21;100.00;101057.91;10607494;27;20047;-75
2022/12/19 01:05:02;;;;;;;1.77;1.60;;;;;;;-1.17;100.00;101048.38;10607065;27;20050;-76
2022/12/19 01:10:05;;;;;;;2.75;1.90;;;;;;;-1.14;100.00;101048.00;10653111;27;20062;-75
2022/12/19 01:15:08;;;;;;;3.42;1.55;;;;;;;-1.09;100.00;101039.31;10601106;27;20057;-75
2022/12/19 01:20:15;;;;;;;1.50;1.40;;;;;;;-1.05;100.00;101046.81;10581854;28;20052;-75
2022/12/19 01:25:18;;;;;;;1.58;1.42;;;;;;;-1.01;100.00;101045.41;10606740;27;20043;-76
2022/12/19 01:30:20;;;;;;;1.58;1.48;;;;;;;-0.96;100.00;101048.34;10579050;27;20422;-76
2022/12/19 01:35:23;;;;;;;1.85;1.40;;;;;;;-0.86;100.00;101044.50;10595835;28;20048;-75
2022/12/19 01:40:25;;;;;;;1.80;1.08;;;;;;;-0.82;100.00;101049.28;10610556;28;20055;-75
2022/12/19 01:45:34;;;;;;;1.85;1.20;;;;;;;-0.78;100.00;101053.25;10603089;28;20038;-75
2022/12/19 01:51:02;;;;;;;1.75;1.10;;;;;;;-0.75;100.00;101044.75;10600110;28;20044;-75
2022/12/19 01:56:06;;;;;;;2.95;1.10;;;;;;;-0.66;100.00;101040.06;10603596;27;20047;-75
2022/12/19 02:01:08;;;;;;;2.55;1.35;;;;;;;-0.57;100.00;101046.94;10574157;28;20322;-75
2022/12/19 02:06:11;;;;;;;2.63;0.90;;;;;;;-0.51;100.00;101048.03;10626596;27;20039;-75
2022/12/19 02:11:16;;;;;;;1.30;1.08;;;;;;;-0.46;100.00;101059.88;10594211;27;20383;-76
2022/12/19 02:16:51;;;;;;;1.83;0.73;;;;;;;-0.41;100.00;101049.31;10588332;28;20395;-75
2022/12/19 02:22:21;;;;;;;1.40;0.50;;;;;;;-0.39;100.00;101081.47;10607861;27;20046;-75
2022/12/19 02:27:36;;;;;;;1.25;0.50;;;;;;;-0.40;100.00;101083.34;10562829;27;20046;-75
2022/12/19 02:32:48;;;;;;;2.22;1.00;;;;;;;-0.46;100.00;101086.00;10599218;28;20040;-76
2022/12/19 02:38:07;;;;;;;1.00;0.70;;;;;;;-0.50;100.00;101085.56;10574275;28;20047;-75
2022/12/19 02:43:11;;;;;;;0.55;0.45;;;;;;;-0.51;100.00;101112.72;10584159;28;20048;-76
2022/12/19 02:48:14;;;;;;;1.02;0.50;;;;;;;-0.52;98.66;101114.59;10584291;28;20051;-76
2022/12/19 02:53:17;;;;;;;2.53;0.60;;;;;;;-0.51;97.66;101113.56;10591152;28;20035;-75
2022/12/19 02:58:36;;;;;;;1.85;0.98;;;;;;;-0.50;96.64;101120.63;10593296;27;20043;-75
2022/12/19 03:03:42;;;;;;;2.72;0.60;;;;;;;-0.49;95.32;101126.84;10585693;28;20035;-77
2022/12/19 03:08:57;;;;;;;2.10;0.70;;;;;;;-0.51;95.01;101135.13;10584023;28;20046;-77
2022/12/19 03:14:13;;;;;;;1.35;0.40;;;;;;;-0.50;94.21;101141.34;10589059;28;20370;-76
2022/12/19 03:19:16;;;;;;;0.65;0.50;;;;;;;-0.50;94.18;101141.34;10547884;28;20489;-76
2022/12/19 03:24:18;;;;;;;0.57;0.47;;;;;;;-0.48;93.66;101156.28;10623565;27;20413;-76
2022/12/19 03:29:27;;;;;;;1.83;0.50;;;;;;;-0.45;94.10;101164.00;10593692;28;20460;-75
2022/12/19 03:34:44;;;;;;;3.10;0.77;;;;;;;-0.47;93.35;101163.34;10599369;28;20054;-75
2022/12/19 03:39:50;;;;;;;1.55;0.75;;;;;;;-0.47;92.61;101171.44;10610283;28;20051;-76
2022/12/19 03:44:54;;;;;;;1.20;0.50;;;;;;;-0.47;92.92;101157.13;10613015;28;20032;-75
2022/12/19 03:49:56;;;;;;;2.17;0.60;;;;;;;-0.47;93.09;101165.22;10601329;28;20071;-76
2022/12/19 03:55:32;;;;;;;0.77;0.40;;;;;;;-0.55;92.74;101170.75;10609500;27;20046;-75
2022/12/19 04:00:36;;;;;;;0.75;0.40;;;;;;;-0.67;93.04;101184.75;10609972;28;20054;-74
2022/12/19 04:05:40;;;;;;;4.72;0.60;;;;;;;-0.76;92.92;101182.38;10612312;27;20034;-74
2022/12/19 04:11:00;;;;;;;2.38;0.38;;;;;;;-0.86;92.39;101189.97;10616390;28;20042;-74
2022/12/19 04:16:34;;;;;;;1.50;0.30;;;;;;;-0.96;92.21;101207.28;10593013;27;20043;-76
2022/12/19 04:21:46;;;;;;;3.65;0.60;;;;;;;-1.04;91.66;101209.25;10603705;27;20051;-74
2022/12/19 04:26:51;;;;;;;0.80;0.47;;;;;;;-1.07;91.77;101215.00;10598899;27;20035;-75
2022/12/19 04:31:53;;;;;;;0.35;0.30;;;;;;;-1.14;91.74;101238.34;10601131;27;20043;-73
2022/12/19 04:36:55;;;;;;;0.38;0.30;;;;;;;-1.19;91.66;101246.19;10601995;28;20506;-74
2022/12/19 04:41:57;;;;;;;3.63;1.00;;;;;;;-1.18;91.62;101246.00;10586537;28;20056;-74
2022/12/19 04:47:00;;;;;;;0.10;0.10;;;;;;;-1.14;91.41;101244.56;10607276;28;20062;-75
2022/12/19 04:52:02;;;;;;;3.33;0.50;;;;;;;-1.10;91.65;101250.41;10608597;27;20040;-75
2022/12/19 04:57:04;;;;;;;2.63;0.57;;;;;;;-1.05;92.45;101256.88;10597724;27;20043;-75
2022/12/19 05:02:06;;;;;;;1.30;0.30;;;;;;;-1.02;92.08;101272.69;10571961;28;20390;-75
2022/12/19 05:07:08;;;;;;;0.43;0.38;;;;;;;-0.99;92.45;101268.78;10612111;28;20039;-75
2022/12/19 05:12:16;;;;;;;1.33;0.43;;;;;;;-0.98;92.10;101273.97;10607680;28;20446;-74
2022/12/19 05:17:18;;;;;;;1.30;0.30;;;;;;;-0.96;90.96;101269.22;10583566;28;20052;-74
2022/12/19 05:22:20;;;;;;;1.55;0.57;;;;;;;-0.94;90.15;101256.41;10612943;27;20051;-74
2022/12/19 05:27:22;;;;;;;0.38;0.30;;;;;;;-0.89;88.52;101280.06;10596069;28;20036;-75
2022/12/19 05:32:31;;;;;;;0.20;0.20;;;;;;;-0.84;88.94;101274.97;10601267;28;20040;-75
2022/12/19 05:37:33;;;;;;;0.73;0.30;;;;;;;-0.82;89.37;101293.63;10596920;28;20047;-75
2022/12/19 05:42:35;;;;;;;1.65;0.52;;;;;;;-0.83;89.64;101297.34;10588306;28;20056;-74
2022/12/19 05:47:46;;;;;;;0.45;0.40;;;;;;;-0.85;88.81;101294.00;10579092;28;20036;-73
2022/12/19 05:52:49;;;;;;;3.08;0.60;;;;;;;-0.85;88.51;101304.78;10603292;28;20545;-74
2022/12/19 05:57:51;;;;;;;1.05;0.30;;;;;;;-0.87;88.09;101312.19;10608309;27;20040;-75
2022/12/19 06:02:53;;;;;;;2.25;0.50;;;;;;;-0.91;87.57;101317.13;10611588;28;20051;-73
2022/12/19 06:07:55;;;;;;;0.20;0.20;;;;;;;-0.94;87.14;101321.06;10608742;28;20038;-75
2022/12/19 06:12:58;;;;;;;2.03;0.70;;;;;;;-0.98;85.49;101338.63;10593439;27;20039;-78
2022/12/19 06:18:00;;;;;;;3.17;0.75;;;;;;;-0.96;84.88;101354.59;10597423;28;20040;-75
2022/12/19 06:23:02;;;;;;;1.08;0.40;;;;;;;-0.97;85.21;101342.16;10610304;28;20040;-77
2022/12/19 06:28:04;;;;;;;2.50;0.60;;;;;;;-0.98;85.26;101352.09;10610541;28;20051;-79
2022/12/19 06:33:06;;;;;;;1.70;0.65;;;;;;;-0.96;84.44;101351.91;10605861;27;20039;-76
2022/12/19 06:38:17;;;;;;;2.10;0.60;;;;;;;-0.96;84.34;101355.44;10516553;28;20697;-77
2022/12/19 06:43:19;;;;;;;1.13;0.55;;;;;;;-0.92;84.27;101366.66;10462591;28;20038;-77
2022/12/19 06:48:22;;;;;;;1.08;0.60;;;;;;;-0.89;84.73;101368.13;10480557;28;20453;-79
2022/12/19 06:53:24;;;;;;;1.58;0.68;;;;;;;-0.91;85.37;101376.41;10470202;28;20090;-76
2022/12/19 06:58:26;;;;;;;0.70;0.60;;;;;;;-0.93;86.37;101379.28;10474360;28;20041;-75
2022/12/19 07:03:33;;;;;;;3.80;0.40;;;;;;;-0.97;86.84;101388.78;10479100;28;20053;-75
2022/12/19 07:08:35;;;;;;;0.22;0.20;;;;;;;-1.00;87.51;101393.72;10479086;28;20052;-76
2022/12/19 07:13:37;;;;;;;1.95;0.50;;;;;;;-1.02;87.49;101396.59;10477786;28;20041;-76
2022/12/19 07:19:06;;;;;;;0.33;0.30;;;;;;;-1.03;88.05;101410.25;10478917;28;20044;-75
2022/12/19 07:24:09;;;;;;;0.77;0.50;;;;;;;-1.03;88.80;101405.69;10453946;28;20431;-76
2022/12/19 07:29:12;;;;;;;3.20;1.00;;;;;;;-1.03;89.10;101421.88;10452675;28;20049;-76
2022/12/19 07:34:18;;;;;;;1.05;0.50;;;;;;;-1.06;89.22;101430.28;10435658;28;20420;-77
2022/12/19 07:39:21;;;;;;;2.35;0.90;;;;;;;-1.08;88.36;101448.50;10435827;28;20225;-77
2022/12/19 07:44:23;;;;;;;3.75;1.85;;;;;;;-1.09;88.19;101454.91;10443146;28;20057;-75
2022/12/19 07:49:30;;;;;;;1.35;0.65;;;;;;;-1.11;87.36;101450.72;10410128;28;20042;-75
2022/12/19 07:54:33;;;;;;;1.80;0.82;;;;;;;-1.12;87.23;101460.66;10413644;28;20419;-75
2022/12/19 07:59:36;;;;;;;0.70;0.47;;;;;;;-1.13;86.75;101467.06;10408918;28;20045;-77
2022/12/19 08:05:04;;;;;;;1.25;0.70;;;;;;;-1.17;86.08;101468.47;10408337;28;20046;-75
2022/12/19 08:10:07;;;;;;;3.63;0.40;;;;;;;-1.16;85.16;101472.00;10408170;28;20056;-76
2022/12/19 08:15:10;;;;;;;1.85;0.77;;;;;;;-1.14;84.66;101483.41;10407584;28;20077;-77
2022/12/19 08:20:38;;;;;;;1.80;0.47;;;;;;;-1.11;84.08;101485.75;10408276;28;20417;-76
2022/12/19 08:25:40;;;;;;;2.17;0.68;;;;;;;-0.58;82.50;101498.09;10408684;28;20053;-75
2022/12/19 08:30:42;;;;;;;1.05;0.65;;;;;;;0.08;80.66;101493.50;10378713;28;20103;-77
2022/12/19 08:35:49;;;;;;;1.05;0.38;;;;;;;-0.36;80.05;101497.16;10407482;28;20053;-76
2022/12/19 08:40:55;;;;;;;0.40;0.30;;;;;;;-0.82;80.61;101511.88;10423418;28;20041;-76
2022/12/19 08:46:01;;;;;;;1.60;0.52;;;;;;;-1.05;81.09;101515.47;10407159;28;20046;-76
2022/12/19 08:51:29;;;;;;;1.00;0.80;;;;;;;-1.15;81.83;101539.13;10418106;28;20056;-76
2022/12/19 08:56:31;;;;;;;2.65;1.27;;;;;;;-1.27;82.36;101544.09;10429777;28;20041;-76
2022/12/19 09:01:34;;;;;;;2.83;0.90;;;;;;;-1.11;81.82;101564.69;10446871;28;20041;-76
2022/12/19 09:06:36;;;;;;;0.88;0.70;;;;;;;-1.25;82.35;101565.47;10446140;28;20045;-75
2022/12/19 09:11:38;;;;;;;1.75;1.05;;;;;;;-1.40;82.26;101569.97;10446895;28;20049;-75
2022/12/19 09:16:40;;;;;;;2.20;0.45;;;;;;;-1.50;83.55;101572.91;10446960;28;20053;-75
2022/12/19 09:21:44;;;;;;;2.97;0.80;;;;;;;-1.53;83.89;101575.97;10442022;28;20041;-75
2022/12/19 09:26:46;;;;;;;1.95;0.70;;;;;;;-1.64;83.90;101589.81;10445458;28;20050;-74
2022/12/19 09:31:49;;;;;;;1.30;0.70;;;;;;;-1.72;84.48;101604.19;10434565;28;20033;-75
2022/12/19 09:36:51;;;;;;;2.35;0.60;;;;;;;-1.66;84.64;101605.31;10421074;28;20060;-75
2022/12/19 09:42:06;;;;;;;1.65;0.82;;;;;;;-1.75;85.24;101623.34;10421549;28;20511;-74
2022/12/19 09:47:15;;;;;;;1.92;0.40;;;;;;;-1.58;84.88;101632.16;10432415;28;20033;-76
2022/12/19 09:52:24;;;;;;;1.63;0.82;;;;;;;-1.67;85.17;101630.53;10382608;28;20404;-75
2022/12/19 09:57:50;;;;;;;0.40;0.40;;;;;;;-1.53;84.36;101633.31;10438294;28;20040;-78
2022/12/19 10:02:56;;;;;;;1.42;0.50;;;;;;;-1.71;84.25;101640.81;10434694;28;20049;-77
2022/12/19 10:08:00;;;;;;;1.85;0.60;;;;;;;-1.76;85.06;101647.72;10416526;28;20041;-77
2022/12/19 10:13:08;;;;;;;1.52;0.90;;;;;;;-1.77;84.87;101648.75;10435048;28;20501;-78
2022/12/19 10:18:47;;;;;;;2.85;0.55;;;;;;;-1.80;85.46;101658.00;10421142;28;20057;-76
2022/12/19 10:24:02;;;;;;;2.10;0.65;;;;;;;-1.84;85.12;101665.59;10412795;28;20054;-79
2022/12/19 10:29:19;;;;;;;1.35;0.80;;;;;;;-1.87;85.67;101671.34;10430924;28;20037;-79
2022/12/19 10:34:39;;;;;;;1.10;1.00;;;;;;;-1.74;86.03;101670.75;10423185;28;20072;-79
2022/12/19 10:39:44;;;;;;;1.63;0.90;;;;;;;-1.73;85.64;101680.53;10432897;28;20034;-79
2022/12/19 10:44:47;;;;;;;0.75;0.60;;;;;;;-1.56;85.63;101674.06;10408815;28;20499;-81
2022/12/19 10:49:50;;;;;;;3.90;0.80;;;;;;;-1.47;86.08;101668.63;10434666;28;20041;-79
2022/12/19 10:54:52;;;;;;;1.55;0.65;;;;;;;-1.44;85.58;101671.78;10443192;28;20045;-81
2022/12/19 11:00:04;;;;;;;0.65;0.52;;;;;;;-1.39;85.75;101676.63;10434353;28;20674;-78
2022/12/19 11:05:27;;;;;;;1.48;0.95;;;;;;;-1.36;85.94;101679.81;10433058;28;20042;-79
2022/12/19 11:10:42;;;;;;;0.75;0.47;;;;;;;-1.19;86.16;101675.19;10444086;28;20054;-80
2022/12/19 11:15:49;;;;;;;0.70;0.45;;;;;;;-1.26;85.86;101682.28;10436744;28;20530;-79
2022/12/19 11:20:54;;;;;;;1.60;0.68;;;;;;;-1.26;86.47;101693.88;10468545;28;20041;-80
2022/12/19 11:26:03;;;;;;;0.75;0.43;;;;;;;-1.25;86.50;101686.63;10425565;28;20041;-77
2022/12/19 11:31:21;;;;;;;2.33;0.70;;;;;;;-1.26;86.61;101695.72;10434715;28;20038;-77
2022/12/19 11:36:36;;;;;;;2.43;0.83;;;;;;;-1.25;87.07;101687.47;10437622;28;20534;-78
2022/12/19 11:41:44;;;;;;;1.15;0.60;;;;;;;-1.28;87.04;101682.44;10425210;28;20050;-77
2022/12/19 11:46:51;;;;;;;1.00;0.50;;;;;;;-1.25;87.20;101692.88;10446853;28;20068;-77
2022/12/19 11:51:59;;;;;;;0.50;0.47;;;;;;;-1.17;87.21;101696.53;10429849;28;20037;-78
2022/12/19 11:57:02;;;;;;;0.43;0.30;;;;;;;-1.15;87.28;101692.66;10427693;28;20045;-78
2022/12/19 12:02:04;;;;;;;2.25;1.02;;;;;;;-1.09;87.40;101691.09;10438937;28;20041;-76
2022/12/19 12:07:08;;;;;;;1.50;0.57;;;;;;;-1.17;87.66;101689.28;10409157;28;20057;-77
2022/12/19 12:12:22;;;;;;;3.33;1.35;;;;;;;-1.23;87.74;101695.38;10428131;28;20049;-77
2022/12/19 12:17:42;;;;;;;2.20;0.70;;;;;;;-1.24;87.59;101696.41;10445242;28;20100;-78
2022/12/19 12:22:45;;;;;;;1.80;0.65;;;;;;;-1.21;87.73;101698.75;10447494;28;20048;-78
2022/12/19 12:28:25;;;;;;;1.95;0.68;;;;;;;-1.19;87.64;101712.03;10445410;28;20054;-76
2022/12/19 12:33:39;;;;;;;2.53;0.75;;;;;;;-1.20;87.19;101708.50;10442098;28;20045;-77
2022/12/19 12:39:04;;;;;;;1.00;0.90;;;;;;;-1.15;87.29;101714.19;10447525;28;20415;-79
2022/12/19 12:44:08;;;;;;;0.95;0.65;;;;;;;-1.16;87.36;101722.44;10419711;28;20033;-77
2022/12/19 12:49:26;;;;;;;1.85;0.70;;;;;;;-1.11;86.89;101715.50;10439867;28;20034;-76
2022/12/19 12:54:36;;;;;;;3.20;0.77;;;;;;;-1.24;87.29;101723.31;10423333;28;20554;-76
2022/12/19 12:59:38;;;;;;;5.03;0.93;;;;;;;-1.31;87.60;101725.06;10434496;28;20053;-78
2022/12/19 13:04:53;;;;;;;5.85;1.08;;;;;;;-1.19;87.64;101726.34;10435717;28;20444;-77
2022/12/19 13:10:23;;;;;;;1.55;0.95;;;;;;;-1.01;87.88;101724.22;10443200;28;20052;-75
2022/12/19 13:15:30;;;;;;;2.50;1.50;;;;;;;-1.08;87.95;101722.38;10434775;28;20046;-76
2022/12/19 13:20:43;;;;;;;0.97;0.80;;;;;;;-1.00;87.63;101725.03;10435609;28;20041;-75
2022/12/19 13:25:51;;;;;;;1.88;1.02;;;;;;;-0.81;87.77;101726.41;10417436;28;20046;-78
2022/12/19 13:31:05;;;;;;;1.77;1.20;;;;;;;-0.52;87.08;101726.53;10442073;28;20056;-77
2022/12/19 13:36:46;;;;;;;3.05;1.20;;;;;;;-0.54;86.27;101712.38;10440028;28;20053;-76
2022/12/19 13:47:11;;;;;;;1.05;0.80;;;;;;;-0.46;86.36;101717.69;10431616;28;20038;-78
2022/12/19 13:52:14;;;;;;;2.50;1.05;;;;;;;-0.63;86.19;101722.41;10435894;28;20053;-78
2022/12/19 13:57:25;;;;;;;4.18;1.83;;;;;;;-0.55;86.43;101717.94;10428482;28;20057;-77
2022/12/19 14:02:30;;;;;;;3.45;1.30;;;;;;;-0.67;86.73;101707.63;10416833;28;20079;-79
2022/12/19 14:07:38;;;;;;;4.82;1.45;;;;;;;-0.85;86.57;101707.09;10428051;28;20072;-79
2022/12/19 14:18:15;;;;;;;2.85;1.63;;;;;;;-0.64;87.09;101695.63;10447331;28;20416;-79
2022/12/19 14:23:18;;;;;;;1.45;1.10;;;;;;;-0.43;87.49;101694.94;10444643;28;20044;-78
2022/12/19 14:28:24;;;;;;;2.40;1.17;;;;;;;-0.33;86.55;101698.22;10421719;28;20033;-79
2022/12/19 14:33:46;;;;;;;4.90;2.05;;;;;;;-0.39;86.72;101693.53;10446577;28;20039;-77
2022/12/19 14:38:48;;;;;;;5.65;1.58;;;;;;;-0.49;86.17;101682.19;10443788;28;20519;-79
2022/12/19 14:43:54;;;;;;;3.17;1.40;;;;;;;-0.47;86.46;101680.97;10433205;28;20041;-79
2022/12/19 14:49:00;;;;;;;2.35;1.15;;;;;;;-0.43;86.27;101687.66;10445927;28;20080;-79
2022/12/19 14:54:08;;;;;;;4.57;1.45;;;;;;;-0.72;87.00;101692.97;10441085;28;20436;-79
2022/12/19 14:59:34;;;;;;;2.38;1.10;;;;;;;-0.72;87.21;101691.13;10451683;28;20082;-78
2022/12/19 15:05:01;;;;;;;2.67;1.13;;;;;;;-0.70;87.72;101689.09;10449718;28;20061;-79
2022/12/19 15:10:15;;;;;;;2.28;1.20;;;;;;;-0.58;88.09;101685.97;10449263;28;20069;-78
2022/12/19 15:15:23;;;;;;;2.33;1.10;;;;;;;-0.63;87.91;101691.91;10450260;28;20045;-79
2022/12/19 15:20:25;;;;;;;3.65;1.65;;;;;;;-0.57;88.77;101679.56;10451542;28;20527;-78
2022/12/19 15:25:28;;;;;;;5.00;1.40;;;;;;;-0.62;88.82;101677.41;10450245;28;20034;-78
2022/12/19 15:30:32;;;;;;;1.63;1.00;;;;;;;-0.51;89.29;101681.53;10451308;28;20094;-80
2022/12/19 15:35:35;;;;;;;2.45;1.17;;;;;;;-0.53;89.58;101664.69;10424556;28;20112;-78
2022/12/19 15:40:39;;;;;;;3.53;1.45;;;;;;;-0.45;89.55;101678.09;10409274;28;20042;-78
2022/12/19 15:45:41;;;;;;;4.18;1.30;;;;;;;-0.38;89.31;101671.78;10443414;28;20064;-79
2022/12/19 15:50:44;;;;;;;1.45;1.02;;;;;;;-0.44;89.13;101677.91;10445996;28;20042;-78
2022/12/19 15:55:47;;;;;;;2.78;1.63;;;;;;;-0.44;89.79;101661.72;10450530;28;20057;-78
2022/12/19 16:00:53;;;;;;;4.40;1.80;;;;;;;-0.43;89.53;101654.47;10448783;28;20377;-78
2022/12/19 16:05:56;;;;;;;3.97;1.63;;;;;;;-0.43;89.94;101666.09;10449588;28;20046;-78
2022/12/19 16:10:58;;;;;;;2.55;1.40;;;;;;;-0.50;89.85;101649.00;10417085;28;20057;-77
2022/12/19 16:16:02;;;;;;;4.70;1.40;;;;;;;-0.53;90.21;101643.94;10417546;28;20439;-79
2022/12/19 16:21:04;;;;;;;3.45;1.35;;;;;;;-0.37;90.45;101641.09;10426060;28;20520;-78
2022/12/19 16:26:30;;;;;;;3.20;1.45;;;;;;;-0.41;90.03;101629.00;10407977;28;20050;-78
2022/12/19 16:31:34;;;;;;;2.58;1.30;;;;;;;-0.39;90.54;101626.94;10407816;28;20046;-79
2022/12/19 16:36:37;;;;;;;5.03;1.55;;;;;;;-0.44;90.27;101631.25;10409227;28;20066;-79
2022/12/19 16:41:41;;;;;;;2.67;1.40;;;;;;;-0.44;90.02;101621.28;10449111;28;20048;-79
2022/12/19 16:46:43;;;;;;;2.30;1.30;;;;;;;-0.45;90.28;101625.00;10438845;28;20052;-78
2022/12/19 16:51:46;;;;;;;2.75;1.40;;;;;;;-0.42;90.78;101623.78;10448436;28;20045;-78
2022/12/19 16:56:51;;;;;;;3.53;1.50;;;;;;;-0.41;90.50;101617.38;10446685;28;20034;-79
2022/12/19 17:01:53;;;;;;;4.03;1.48;;;;;;;-0.38;90.22;101620.53;10418990;28;20041;-78
2022/12/19 17:06:56;;;;;;;3.53;1.55;;;;;;;-0.31;90.10;101610.69;10430505;28;20459;-81
2022/12/19 17:11:59;;;;;;;2.72;1.50;;;;;;;-0.44;89.84;101605.13;10442692;28;20041;-81
2022/12/19 17:17:03;;;;;;;3.85;1.27;;;;;;;-0.36;89.99;101612.25;10431098;28;20038;-79
2022/12/19 17:22:15;;;;;;;4.13;1.58;;;;;;;-0.35;89.77;101603.16;10437573;28;20037;-80
2022/12/19 17:27:19;;;;;;;4.47;2.10;;;;;;;-0.42;89.25;101597.66;10439884;28;20049;-80
2022/12/19 17:32:22;;;;;;;4.75;2.08;;;;;;;-0.43;89.58;101596.00;10446530;28;20076;-80
2022/12/19 17:37:25;;;;;;;2.22;1.40;;;;;;;-0.49;89.33;101599.44;10445700;28;20053;-79
2022/12/19 17:42:27;;;;;;;2.92;1.20;;;;;;;-0.53;89.27;101589.19;10447105;28;20037;-80
2022/12/19 17:47:29;;;;;;;3.30;1.48;;;;;;;-0.41;89.59;101591.25;10458684;28;20045;-79
2022/12/19 17:52:34;;;;;;;2.42;1.50;;;;;;;-0.43;90.02;101589.78;10465921;28;20041;-80
2022/12/19 17:57:36;;;;;;;3.75;1.67;;;;;;;-0.35;89.58;101590.53;10466385;28;20046;-81
2022/12/19 18:02:39;;;;;;;3.55;1.90;;;;;;;-0.13;89.17;101580.66;10445708;28;20057;-79
2022/12/19 18:07:41;;;;;;;2.90;1.52;;;;;;;-0.06;88.78;101572.63;10421002;28;20056;-79
2022/12/19 18:12:44;;;;;;;3.53;1.60;;;;;;;-0.23;88.71;101576.56;10407242;28;20049;-80
2022/12/19 18:17:47;;;;;;;3.67;1.65;;;;;;;-0.19;89.51;101575.16;10416718;28;20057;-79
2022/12/19 18:22:50;;;;;;;3.00;1.60;;;;;;;-0.21;89.38;101571.81;10433890;28;20041;-78
2022/12/19 18:27:53;;;;;;;3.28;1.60;;;;;;;-0.22;89.96;101572.84;10433487;28;20044;-78
2022/12/19 18:32:57;;;;;;;7.30;2.10;;;;;;;-0.14;89.98;101557.41;10415661;28;20053;-79
2022/12/19 18:38:01;;;;;;;3.47;1.50;;;;;;;-0.18;90.22;101571.44;10433214;28;20096;-80
2022/12/19 18:43:04;;;;;;;3.80;2.05;;;;;;;-0.16;91.18;101569.41;10431508;28;20053;-80
2022/12/19 18:48:31;;;;;;;3.08;1.83;;;;;;;-0.02;91.16;101563.13;10432555;28;20474;-79
2022/12/19 18:53:33;;;;;;;6.43;2.25;;;;;;;0.00;91.24;101561.09;10425822;28;20508;-79
2022/12/19 18:58:36;;;;;;;4.95;2.20;;;;;;;0.11;90.82;101566.00;10415761;28;20068;-79
2022/12/19 19:03:52;;;;;;;4.70;2.17;;;;;;;0.00;91.28;101566.50;10416967;28;20052;-85
2022/12/19 19:08:57;;;;;;;5.60;2.38;;;;;;;0.08;91.64;101565.53;10434240;28;20076;-82
2022/12/19 19:14:18;;;;;;;4.30;2.28;;;;;;;0.10;91.78;101564.31;10425404;28;20049;-78
2022/12/19 19:19:21;;;;;;;3.53;2.20;;;;;;;0.06;91.48;101556.81;10432907;28;20033;-83
2022/12/19 19:24:23;;;;;;;2.88;1.77;;;;;;;0.13;92.03;101546.91;10431488;28;20037;-82
2022/12/19 19:29:25;;;;;;;3.75;2.17;;;;;;;0.19;92.26;101540.78;10432455;28;20042;-82
2022/12/19 19:34:30;;;;;;;4.50;2.35;;;;;;;0.19;92.59;101541.59;10430736;28;20046;-80
2022/12/19 19:39:33;;;;;;;3.75;2.28;;;;;;;0.42;92.46;101543.28;10428438;28;20526;-78
2022/12/19 19:44:35;;;;;;;5.88;2.72;;;;;;;0.44;92.59;101525.03;10425687;28;20060;-78
2022/12/19 19:49:38;;;;;;;4.80;2.13;;;;;;;0.55;92.91;101528.06;10420953;28;20050;-82
2022/12/19 19:54:40;;;;;;;2.53;1.90;;;;;;;0.29;92.72;101539.41;10429853;28;20049;-81
2022/12/19 19:59:45;;;;;;;3.17;1.73;;;;;;;0.40;92.91;101529.16;10431763;28;20046;-80
2022/12/19 20:04:47;;;;;;;3.20;2.00;;;;;;;0.27;93.96;101511.78;10445371;28;20053;-80
2022/12/19 20:09:49;;;;;;;4.85;2.30;;;;;;;0.45;94.09;101514.03;10435242;28;20041;-81
2022/12/19 20:14:52;;;;;;;3.75;1.95;;;;;;;0.37;94.34;101516.03;10427991;28;20038;-78
2022/12/19 20:19:54;;;;;;;4.28;2.50;;;;;;;0.45;94.34;101511.31;10440599;28;20057;-78
2022/12/19 20:24:56;;;;;;;3.88;2.70;;;;;;;0.49;94.33;101515.31;10424736;28;20042;-78
2022/12/19 20:29:59;;;;;;;4.28;2.45;;;;;;;0.58;94.03;101491.72;10437512;28;20053;-77
2022/12/19 20:35:01;;;;;;;4.45;2.75;;;;;;;0.63;94.15;101491.13;10418766;28;20527;-77
2022/12/19 20:40:04;;;;;;;4.70;3.08;;;;;;;0.69;93.80;101503.84;10429359;28;20045;-78
2022/12/19 20:45:07;;;;;;;4.43;3.25;;;;;;;0.86;93.58;101511.47;10430736;28;20045;-78
2022/12/19 20:50:11;;;;;;;4.07;2.65;;;;;;;0.79;93.62;101509.75;10443984;28;20049;-80
2022/12/19 20:55:17;;;;;;;5.30;3.33;;;;;;;0.68;93.51;101503.00;10441081;28;20593;-79
2022/12/19 21:00:19;;;;;;;7.53;4.47;;;;;;;0.54;93.86;101479.66;10447531;28;20049;-78
2022/12/19 21:05:21;;;;;;;4.32;3.08;;;;;;;0.49;93.75;101479.38;10438599;28;20037;-77
2022/12/19 21:10:24;;;;;;;6.22;3.78;;;;;;;0.59;94.23;101466.38;10419801;28;20037;-78
2022/12/19 21:15:26;;;;;;;57.78;31.83;;;;;;;0.42;94.73;101457.72;10399557;28;20068;-76
2022/12/19 21:20:28;;;;;;;8.65;5.07;;;;;;;0.29;95.36;101454.91;10432314;28;20068;-74
2022/12/19 21:25:31;;;;;;;10.38;5.03;;;;;;;0.29;95.35;101444.09;10449326;28;20057;-74
2022/12/19 21:30:33;;;;;;;10.70;6.00;;;;;;;0.33;95.85;101444.53;10442489;28;20056;-74
2022/12/19 21:35:36;;;;;;;10.98;5.13;;;;;;;0.20;96.69;101440.72;10422958;28;20049;-74
2022/12/19 21:40:38;;;;;;;13.27;5.97;;;;;;;0.07;96.79;101456.78;10429085;28;20041;-74
2022/12/19 21:45:41;;;;;;;10.68;5.75;;;;;;;0.15;97.07;101453.94;10426512;28;20460;-73
2022/12/19 21:50:43;;;;;;;15.65;5.28;;;;;;;0.14;96.69;101440.63;10429390;28;20048;-73
2022/12/19 21:55:45;;;;;;;12.20;6.53;;;;;;;0.18;96.67;101425.75;10440386;28;20048;-74
2022/12/19 22:00:47;;;;;;;12.93;5.82;;;;;;;0.09;96.68;101424.19;10427912;28;20046;-73
2022/12/19 22:05:50;;;;;;;11.80;5.28;;;;;;;0.16;96.67;101422.38;10421053;28;20049;-72
2022/12/19 22:10:52;;;;;;;13.30;5.95;;;;;;;0.32;96.78;101422.09;10417518;28;20044;-73
2022/12/19 22:16:00;;;;;;;9.75;5.50;;;;;;;0.25;96.88;101423.94;10424398;28;20052;-72
2022/12/19 22:21:03;;;;;;;12.50;6.15;;;;;;;0.03;96.62;101406.91;10427962;28;20042;-72
2022/12/19 22:26:17;;;;;;;15.25;5.65;;;;;;;0.00;96.69;101410.00;10410747;28;20054;-73
2022/12/19 22:31:27;;;;;;;13.18;5.90;;;;;;;0.07;96.83;101397.41;10443566;28;20616;-73
2022/12/19 22:36:32;;;;;;;14.27;5.50;;;;;;;0.16;96.41;101403.50;10433802;28;20057;-73
2022/12/19 22:41:34;;;;;;;15.02;6.20;;;;;;;0.11;96.80;101400.53;10419313;28;20046;-73
2022/12/19 22:46:37;;;;;;;13.38;6.15;;;;;;;0.10;96.79;101397.00;10422599;28;20512;-73
2022/12/19 22:51:39;;;;;;;12.70;5.30;;;;;;;0.09;96.14;101387.25;10429540;28;20562;-72
2022/12/19 22:56:42;;;;;;;10.30;5.22;;;;;;;-0.05;96.31;101372.78;10433040;28;20049;-72
2022/12/19 23:01:44;;;;;;;12.93;5.70;;;;;;;-0.07;95.69;101361.38;10428827;28;20057;-72
2022/12/19 23:06:46;;;;;;;12.20;5.82;;;;;;;-0.13;95.83;101348.66;10420839;28;20535;-72
2022/12/19 23:11:48;;;;;;;11.88;5.32;;;;;;;0.02;95.88;101355.84;10419462;28;20042;-73
2022/12/19 23:16:51;;;;;;;13.50;5.95;;;;;;;0.00;95.57;101350.66;10426366;28;20045;-73
2022/12/19 23:21:53;;;;;;;16.02;6.38;;;;;;;0.10;95.40;101332.25;10440787;28;20041;-74
2022/12/19 23:26:59;;;;;;;12.27;5.28;;;;;;;0.16;95.27;101326.06;10442608;28;20408;-74
2022/12/19 23:32:01;;;;;;;15.95;5.97;;;;;;;0.12;94.82;101321.25;10426034;28;20061;-75
2022/12/19 23:37:03;;;;;;;12.57;5.95;;;;;;;0.09;94.25;101321.66;10414397;28;20049;-75
2022/12/19 23:42:06;;;;;;;11.90;5.30;;;;;;;0.13;94.13;101294.06;10429469;28;20054;-75